Ana Sayfa
METAR-TAF:

METAR-TAF

Havaalanları :

Sibu, Malezya

Enlem: 02-20N, Boylam: 111-50E, yükseklik: 8 m

Güncel hava durumu gözlemi

Rapor saat 09:00 UTC de 1 saat ve 6 dakika önce yapıldı.
Rüzgar kuzeydan 5 kt
Sıcaklık 27°C
Nem 89%
Basınç 1008 hPa
Görüş mesafesi 10 km veya daha fazla
1800 ft yükseklikte parçalı bulutlu
15000 ft yükseklikte parçalı çok bulutlu

METAR: WBGS 250900Z 01005KT 9999 SCT018 BKN150 27/25 Q1008

Saat: 18:06 (10:06 UTC)

Tahmin

Rapor saat 05:00 UTC de 5 saat ve 6 dakika önce yapıldı.
Ayın 25'si saat 06 UTC'den ayın 26'si saat 06 UTC'ye kadar geçerli Tahmin
Rüzgar kuzey/kuzeydoğudan 5 kt
Görüş mesafesi 10 km veya daha fazla
1800 ft yükseklikte parçalı bulutlu
Geçici
ayın 25'si saat 08 UTC'den ayın 25'si saat 12 UTC'ye kadar
Görüş mesafesi: 5000 m
1600 ft yükseklikte parçalı bulutlu
sağanak yağmurlar

TAF: WBGS 250500Z 2506/2606 02005KT 9999 SCT018 TEMPO 2508/2512 5000 SHRA SCT016

4.000'den fazla havaalanı için hava durumu gözlemleri ve tahminleri (METAR ve TAF raporları).

Kullanılabilir istasyonlar harita üzerinde sarı ve kırmızı noktalarla gösterilir.

İstasyonun adını görmek için fareyi noktanın üzerinde gezdirin.

Sonrasında hava gözlem ve tahminlerini görmek için tıklayın.

Haritayı değiştirmek için: yaklaştırmak için siyah artı işaretli yeşil düğmeye ve uzaklaştırmak için de eksi işaretli düğmeye hızla tıklayın; bitişik haritalar için yeşil okları kullanın.


METAR-TAF: